Time;durP1;ratioP1;P1;durP2;ratioP2;P2;SDS_P1;SDS_P2;PMS_P1;PMS_P2;Temp;Humidity;BMP_temperature;BMP_pressure;BME280_temperature;BME280_humidity;BME280_pressure;Samples;Min_cycle;Max_cycle;Signal;HPM_P1;HPM_P2
2023/12/09 00:01:31;;;;;;;27.27;14.63;;;;;;;6.19;100.00;98693.09;5058638;28;20176;-77
2023/12/09 00:03:56;;;;;;;33.22;14.60;;;;;;;6.11;100.00;98677.03;5053896;28;20037;-77
2023/12/09 00:06:22;;;;;;;32.42;14.38;;;;;;;6.23;100.00;98690.88;5048867;28;20353;-77
2023/12/09 00:08:47;;;;;;;26.42;14.38;;;;;;;6.30;100.00;98698.06;5044156;28;20053;-77
2023/12/09 00:11:12;;;;;;;26.92;13.00;;;;;;;6.26;100.00;98671.72;5038547;28;20040;-76
2023/12/09 00:13:38;;;;;;;24.60;14.23;;;;;;;6.27;100.00;98676.09;5058742;28;20050;-78
2023/12/09 00:16:04;;;;;;;25.30;13.05;;;;;;;6.36;100.00;98686.56;5063959;28;20036;-77
2023/12/09 00:18:30;;;;;;;29.50;13.20;;;;;;;6.31;100.00;98689.00;5055981;28;20040;-76
2023/12/09 00:20:55;;;;;;;20.50;11.55;;;;;;;6.40;100.00;98700.50;5061679;28;20264;-76
2023/12/09 00:23:23;;;;;;;25.42;13.35;;;;;;;6.35;100.00;98695.66;5043598;28;20043;-78
2023/12/09 00:25:48;;;;;;;31.23;14.07;;;;;;;6.42;100.00;98692.25;5052504;28;20025;-78
2023/12/09 00:28:14;;;;;;;27.08;13.98;;;;;;;6.45;100.00;98697.28;5026561;28;20215;-77
2023/12/09 00:30:39;;;;;;;22.88;12.98;;;;;;;6.39;100.00;98692.63;5039515;28;20037;-77
2023/12/09 00:33:05;;;;;;;26.30;13.50;;;;;;;6.40;100.00;98697.00;5060591;28;20293;-77
2023/12/09 00:35:30;;;;;;;29.45;13.57;;;;;;;6.40;100.00;128944.50;5049260;28;20021;-77
2023/12/09 00:37:55;;;;;;;24.88;12.25;;;;;;;6.50;100.00;98700.28;5028960;28;20089;-77
2023/12/09 00:40:22;;;;;;;28.80;13.88;;;;;;;6.40;100.00;98688.94;5038575;28;20021;-78
2023/12/09 00:42:47;;;;;;;25.67;13.30;;;;;;;6.39;100.00;98692.63;5040571;28;20025;-77
2023/12/09 00:45:13;;;;;;;22.83;13.15;;;;;;;6.48;100.00;98688.88;5039612;28;20029;-77
2023/12/09 00:47:38;;;;;;;24.67;12.48;;;;;;;6.33;100.00;98686.09;5034108;28;20033;-77
2023/12/09 00:50:05;;;;;;;28.08;12.73;;;;;;;6.35;100.00;98697.53;5043836;28;20325;-77
2023/12/09 00:52:30;;;;;;;26.85;13.82;;;;;;;6.33;100.00;98695.00;5054377;28;20024;-78
2023/12/09 00:54:56;;;;;;;26.58;13.60;;;;;;;6.31;100.00;98689.00;5062418;28;20085;-78
2023/12/09 00:57:22;;;;;;;27.05;12.90;;;;;;;6.32;100.00;98687.97;5042316;28;20096;-78
2023/12/09 00:59:47;;;;;;;28.55;13.88;;;;;;;6.30;100.00;98698.06;5045469;28;20017;-78
2023/12/09 01:02:13;;;;;;;28.63;14.30;;;;;;;6.29;100.00;98696.38;5059088;28;20029;-78
2023/12/09 01:04:38;;;;;;;27.77;15.93;;;;;;;6.31;100.00;98709.63;5039961;28;20029;-77
2023/12/09 01:07:03;;;;;;;31.40;14.88;;;;;;;6.27;100.00;98701.09;5041818;28;20052;-77
2023/12/09 01:09:29;;;;;;;33.10;13.98;;;;;;;6.30;100.00;98702.59;5053814;28;20031;-78
2023/12/09 01:11:54;;;;;;;29.20;14.00;;;;;;;6.33;100.00;98705.75;5048381;28;20017;-77
2023/12/09 01:14:19;;;;;;;30.52;14.40;;;;;;;6.31;100.00;98697.06;5039041;28;20025;-78
2023/12/09 01:16:45;;;;;;;28.42;13.82;;;;;;;6.33;100.00;98713.81;5040116;28;20344;-77
2023/12/09 01:19:10;;;;;;;30.00;12.80;;;;;;;6.38;100.00;98732.09;5052085;28;20025;-77
2023/12/09 01:21:35;;;;;;;27.05;13.05;;;;;;;6.38;100.00;98721.34;5051029;28;20023;-77
2023/12/09 01:24:01;;;;;;;21.10;11.73;;;;;;;6.39;100.00;98724.84;5045103;28;20024;-77
2023/12/09 01:26:26;;;;;;;23.10;12.02;;;;;;;6.39;100.00;98725.69;5039542;28;20024;-78
2023/12/09 01:28:51;;;;;;;22.30;12.40;;;;;;;6.43;100.00;98723.50;5033639;28;20326;-78
2023/12/09 01:31:16;;;;;;;21.02;11.93;;;;;;;6.45;100.00;98732.22;5043278;28;20025;-77
2023/12/09 01:33:42;;;;;;;21.98;11.10;;;;;;;6.35;100.00;98719.03;5044732;28;20408;-77
2023/12/09 01:36:07;;;;;;;21.75;11.40;;;;;;;6.41;100.00;98725.53;5043392;28;20024;-77
2023/12/09 01:38:33;;;;;;;22.90;11.15;;;;;;;6.39;100.00;98733.75;5059044;28;20036;-77
2023/12/09 01:40:58;;;;;;;18.90;11.10;;;;;;;6.43;100.00;98739.63;5058256;28;20250;-77
2023/12/09 01:43:23;;;;;;;25.25;11.95;;;;;;;6.42;100.00;98743.31;5043820;28;20016;-78
2023/12/09 01:46:02;;;;;;;20.17;12.10;;;;;;;6.40;100.00;98748.06;5044287;28;20028;-78
2023/12/09 01:48:28;;;;;;;29.95;11.05;;;;;;;6.36;100.00;98745.69;5059681;28;20021;-77
2023/12/09 01:50:53;;;;;;;27.92;11.80;;;;;;;6.25;100.00;98748.78;5044690;28;20032;-77
2023/12/09 01:53:18;;;;;;;22.77;12.27;;;;;;;6.31;100.00;98758.84;5044953;28;20032;-77
2023/12/09 01:55:43;;;;;;;27.35;11.88;;;;;;;6.30;100.00;98762.53;5047469;28;20368;-76
2023/12/09 01:58:10;;;;;;;20.23;11.30;;;;;;;6.27;100.00;98756.69;5050814;28;20251;-77
2023/12/09 02:00:40;;;;;;;20.23;11.52;;;;;;;6.39;100.00;98759.78;5060160;28;20066;-76
2023/12/09 02:03:06;;;;;;;23.45;11.27;;;;;;;6.37;100.00;98754.63;5050232;28;20210;-76
2023/12/09 02:05:31;;;;;;;24.77;12.35;;;;;;;6.38;100.00;98766.19;5056378;28;20025;-76
2023/12/09 02:07:56;;;;;;;21.33;11.32;;;;;;;6.30;100.00;98761.69;5059918;28;20025;-76
2023/12/09 02:10:22;;;;;;;19.63;10.48;;;;;;;6.26;100.00;98749.63;5048050;28;20025;-77
2023/12/09 02:12:57;;;;;;;22.77;11.05;;;;;;;6.17;100.00;98762.28;5055042;28;20025;-76
2023/12/09 02:15:32;;;;;;;23.60;11.30;;;;;;;6.22;100.00;98764.44;5047740;28;20037;-76
2023/12/09 02:18:01;;;;;;;27.08;13.07;;;;;;;6.31;100.00;98776.78;5045733;28;20067;-77
2023/12/09 02:20:27;;;;;;;25.10;11.82;;;;;;;6.21;100.00;98757.38;5048288;28;20017;-77
2023/12/09 02:23:08;;;;;;;34.67;14.75;;;;;;;6.22;100.00;98767.97;5069269;28;20025;-76
2023/12/09 02:25:34;;;;;;;24.83;14.82;;;;;;;6.19;100.00;98770.16;5054467;28;20043;-77
2023/12/09 02:28:05;;;;;;;31.50;15.82;;;;;;;6.12;100.00;98751.22;5046098;28;20063;-77
2023/12/09 02:30:59;;;;;;;26.48;14.35;;;;;;;6.18;100.00;98750.50;5066497;28;20303;-78
2023/12/09 02:33:25;;;;;;;25.40;13.80;;;;;;;6.24;100.00;98740.94;5035446;28;20042;-77
2023/12/09 02:35:53;;;;;;;46.33;17.77;;;;;;;6.27;100.00;98735.19;5036687;28;20025;-78
2023/12/09 02:38:18;;;;;;;40.63;17.17;;;;;;;6.18;100.00;98720.13;5043768;28;20021;-78
2023/12/09 02:40:45;;;;;;;41.63;15.48;;;;;;;6.25;100.00;98734.53;5047492;28;20083;-78
2023/12/09 02:43:12;;;;;;;41.08;15.63;;;;;;;6.28;100.00;98739.53;5050969;28;20024;-78
2023/12/09 02:45:37;;;;;;;35.88;14.93;;;;;;;6.29;100.00;98734.00;5040643;28;20066;-76
2023/12/09 02:48:03;;;;;;;23.65;12.73;;;;;;;6.38;100.00;98736.63;5047679;28;20017;-76
2023/12/09 02:50:29;;;;;;;32.85;12.45;;;;;;;6.28;100.00;98721.56;5049110;28;20066;-77
2023/12/09 02:52:54;;;;;;;24.55;12.20;;;;;;;6.27;100.00;98733.34;5075072;28;20025;-77
2023/12/09 02:55:20;;;;;;;24.80;11.32;;;;;;;6.25;100.00;98727.31;5068247;28;20024;-77
2023/12/09 02:57:45;;;;;;;23.42;11.88;;;;;;;6.17;100.00;98716.59;5063935;28;20047;-77
2023/12/09 03:00:11;;;;;;;27.48;12.55;;;;;;;6.15;100.00;98716.78;5036411;28;20030;-77
2023/12/09 03:02:36;;;;;;;27.10;11.50;;;;;;;6.12;100.00;98702.88;5038038;28;20203;-77
2023/12/09 03:05:01;;;;;;;24.15;11.50;;;;;;;6.12;100.00;98702.03;5053985;28;20033;-77
2023/12/09 03:07:27;;;;;;;25.15;12.10;;;;;;;6.13;100.00;98691.09;5040111;28;20048;-76
2023/12/09 03:09:52;;;;;;;23.83;11.38;;;;;;;6.15;100.00;98705.19;5040722;28;20025;-77
2023/12/09 03:12:17;;;;;;;19.30;11.43;;;;;;;6.10;100.00;98702.22;5057622;28;20071;-77
2023/12/09 03:14:42;;;;;;;28.08;13.13;;;;;;;6.12;100.00;98697.50;5057721;28;20029;-77
2023/12/09 03:17:10;;;;;;;22.40;11.75;;;;;;;6.13;100.00;98702.72;5054641;28;20025;-77
2023/12/09 03:19:35;;;;;;;24.90;11.23;;;;;;;6.11;100.00;98690.47;5052154;28;20025;-77
2023/12/09 03:22:00;;;;;;;23.75;11.38;;;;;;;6.05;100.00;98672.34;5045778;28;20028;-77
2023/12/09 03:24:26;;;;;;;21.45;11.30;;;;;;;6.14;100.00;98688.25;5029815;28;20018;-77
2023/12/09 03:26:52;;;;;;;26.63;10.20;;;;;;;6.15;100.00;98681.84;5052150;28;20020;-77
2023/12/09 03:29:18;;;;;;;18.90;10.80;;;;;;;6.15;100.00;98681.84;5046693;28;20351;-77
2023/12/09 03:31:43;;;;;;;19.55;11.18;;;;;;;6.20;100.00;98677.81;5043620;28;20285;-77
2023/12/09 03:34:08;;;;;;;22.65;11.10;;;;;;;6.23;100.00;98682.81;5027696;28;20029;-77
2023/12/09 03:36:34;;;;;;;24.40;10.77;;;;;;;6.21;100.00;98669.59;5062011;28;20029;-77
2023/12/09 03:38:59;;;;;;;21.50;10.32;;;;;;;6.18;100.00;98677.97;5039146;28;20032;-77
2023/12/09 03:41:24;;;;;;;20.27;10.93;;;;;;;6.20;100.00;98675.13;5064027;28;20225;-77
2023/12/09 03:43:49;;;;;;;20.38;10.52;;;;;;;6.30;100.00;98686.47;5044032;28;20071;-76
2023/12/09 03:46:15;;;;;;;21.80;10.43;;;;;;;6.26;100.00;98674.41;5051920;28;20024;-76
2023/12/09 03:48:40;;;;;;;22.65;10.02;;;;;;;6.27;100.00;98660.81;5038086;28;20071;-77
2023/12/09 03:51:05;;;;;;;19.33;9.20;;;;;;;6.34;100.00;98683.25;5053443;28;20071;-77
2023/12/09 03:53:31;;;;;;;17.70;8.07;;;;;;;6.28;100.00;98661.63;5043675;28;20025;-77
2023/12/09 03:55:56;;;;;;;18.45;10.02;;;;;;;6.28;100.00;98662.47;5045763;28;20314;-77
2023/12/09 03:58:22;;;;;;;18.80;9.77;;;;;;;6.27;100.00;98659.97;5048261;28;20025;-77
2023/12/09 04:00:48;;;;;;;16.92;10.82;;;;;;;6.21;100.00;98658.84;5057391;28;20037;-77
2023/12/09 04:03:14;;;;;;;20.33;10.27;;;;;;;6.26;100.00;98667.19;5045563;28;20045;-78
2023/12/09 04:05:40;;;;;;;21.98;11.23;;;;;;;6.28;100.00;98667.00;5041999;28;20079;-78
2023/12/09 04:08:05;;;;;;;21.55;11.35;;;;;;;6.21;100.00;98661.53;5046602;28;20067;-77
2023/12/09 04:10:31;;;;;;;18.27;10.20;;;;;;;6.20;100.00;98667.91;5043681;28;20028;-77
2023/12/09 04:12:56;;;;;;;20.63;10.25;;;;;;;6.12;100.00;98665.28;5043107;28;20036;-77
2023/12/09 04:15:22;;;;;;;31.13;12.10;;;;;;;6.08;100.00;98661.28;5055722;28;20021;-77
2023/12/09 04:17:47;;;;;;;20.33;10.82;;;;;;;6.14;100.00;98676.69;5063027;28;20032;-76
2023/12/09 04:20:12;;;;;;;21.25;10.20;;;;;;;6.05;100.00;98662.47;5052162;28;20025;-76
2023/12/09 04:22:38;;;;;;;19.42;10.13;;;;;;;6.06;100.00;98664.13;5035418;28;20388;-76
2023/12/09 04:25:07;;;;;;;20.35;10.02;;;;;;;6.02;100.00;98656.59;5039972;28;20028;-77
2023/12/09 04:27:33;;;;;;;18.27;10.20;;;;;;;6.10;100.00;98676.22;5060386;28;20253;-77
2023/12/09 04:29:59;;;;;;;19.80;8.90;;;;;;;6.05;100.00;98678.59;5045692;28;20029;-78
2023/12/09 04:32:29;;;;;;;27.90;9.90;;;;;;;5.95;100.00;98682.47;5044669;28;20020;-78
2023/12/09 04:34:55;;;;;;;19.50;10.00;;;;;;;5.95;100.00;98688.72;5056595;28;20029;-77
2023/12/09 04:37:20;;;;;;;20.08;9.63;;;;;;;5.92;100.00;98692.56;5061671;28;20059;-77
2023/12/09 04:39:45;;;;;;;16.70;9.80;;;;;;;5.81;100.00;98689.41;5064380;28;20270;-77
2023/12/09 04:42:10;;;;;;;22.30;10.75;;;;;;;5.82;100.00;98705.38;5057706;28;20021;-77
2023/12/09 04:44:36;;;;;;;21.63;10.90;;;;;;;5.74;100.00;98704.53;5050387;28;20036;-77
2023/12/09 04:47:01;;;;;;;26.23;11.27;;;;;;;5.72;100.00;98699.38;5032205;28;20044;-77
2023/12/09 04:49:26;;;;;;;22.02;11.38;;;;;;;5.74;100.00;98702.72;5060662;28;20098;-77
2023/12/09 04:51:51;;;;;;;27.48;11.73;;;;;;;5.67;100.00;98694.53;5044429;28;20096;-77
2023/12/09 04:54:17;;;;;;;26.55;12.25;;;;;;;5.71;100.00;98703.03;5047996;28;20028;-78
2023/12/09 04:56:43;;;;;;;24.67;11.45;;;;;;;5.75;100.00;98695.50;5067001;28;20204;-78
2023/12/09 04:59:08;;;;;;;24.92;12.27;;;;;;;5.81;100.00;98700.16;5046277;28;20021;-78
2023/12/09 05:01:33;;;;;;;20.02;11.32;;;;;;;5.86;100.00;98685.19;5031347;28;20068;-78
2023/12/09 05:03:59;;;;;;;22.85;11.50;;;;;;;5.86;100.00;98689.72;5034163;28;20055;-78
2023/12/09 05:06:24;;;;;;;19.88;12.00;;;;;;;5.90;100.00;98683.84;5041662;28;20334;-78
2023/12/09 05:08:50;;;;;;;23.20;11.52;;;;;;;5.87;100.00;98692.25;5050876;28;20028;-78
2023/12/09 05:11:15;;;;;;;26.15;11.70;;;;;;;5.87;100.00;98681.50;5048744;28;20321;-78
2023/12/09 05:13:40;;;;;;;23.05;11.35;;;;;;;5.90;100.00;98680.31;5040835;28;20080;-77
2023/12/09 05:16:06;;;;;;;24.42;11.32;;;;;;;5.90;100.00;98675.78;5068897;28;20029;-79
2023/12/09 05:18:33;;;;;;;24.80;10.90;;;;;;;5.96;100.00;98674.28;5081180;28;20032;-77
2023/12/09 05:20:59;;;;;;;26.67;11.20;;;;;;;5.95;100.00;98677.13;5065410;28;20092;-78
2023/12/09 05:23:24;;;;;;;23.50;11.30;;;;;;;5.99;100.00;98652.44;5056629;28;20044;-78
2023/12/09 05:25:49;;;;;;;25.73;12.15;;;;;;;6.04;100.00;98659.97;5060450;28;20096;-77
2023/12/09 05:28:15;;;;;;;30.88;12.25;;;;;;;5.95;100.00;98652.94;5054747;28;20028;-78
2023/12/09 05:30:41;;;;;;;22.90;13.95;;;;;;;5.98;100.00;98661.50;5066416;28;20017;-77
2023/12/09 05:33:07;;;;;;;25.25;12.48;;;;;;;5.99;100.00;98668.53;5057771;28;21083;-78
2023/12/09 05:35:32;;;;;;;28.98;13.07;;;;;;;5.82;100.00;98651.66;5068476;23;20076;-78
2023/12/09 05:37:58;;;;;;;21.30;10.32;;;;;;;5.90;100.00;98661.53;5064578;28;20040;-79
2023/12/09 05:40:23;;;;;;;26.20;11.98;;;;;;;5.81;100.00;98635.72;5052197;28;20106;-80
2023/12/09 05:42:48;;;;;;;23.63;11.32;;;;;;;6.07;100.00;98648.84;5048015;28;20025;-78
2023/12/09 05:45:13;;;;;;;26.65;10.38;;;;;;;6.05;100.00;98635.63;5049652;28;20055;-80
2023/12/09 05:47:39;;;;;;;20.83;9.65;;;;;;;6.00;100.00;98626.41;5030423;28;20152;-79
2023/12/09 05:50:05;;;;;;;24.40;10.02;;;;;;;6.04;100.00;98633.09;5039447;28;20108;-79
2023/12/09 05:52:31;;;;;;;18.38;9.65;;;;;;;6.03;100.00;98631.44;5038857;28;20052;-79
2023/12/09 05:54:56;;;;;;;15.85;8.45;;;;;;;6.04;100.00;98622.34;5057027;28;20033;-80
2023/12/09 05:57:21;;;;;;;19.65;8.85;;;;;;;5.95;100.00;98607.31;5053745;28;20022;-79
2023/12/09 05:59:47;;;;;;;17.13;8.45;;;;;;;6.01;100.00;98603.91;5046758;28;20033;-78
2023/12/09 06:02:12;;;;;;;19.67;8.60;;;;;;;6.20;100.00;98635.66;5047241;28;20053;-77
2023/12/09 06:04:37;;;;;;;18.85;9.52;;;;;;;6.11;100.00;98628.69;5040886;28;20029;-77
2023/12/09 06:07:03;;;;;;;14.80;7.85;;;;;;;6.20;100.00;98630.28;5042263;28;20032;-76
2023/12/09 06:09:29;;;;;;;13.93;6.72;;;;;;;6.13;100.00;98610.53;5038417;28;20031;-78
2023/12/09 06:11:54;;;;;;;22.50;7.50;;;;;;;6.13;100.00;98608.69;5032539;28;20025;-76
2023/12/09 06:14:19;;;;;;;14.85;7.35;;;;;;;6.19;100.00;98623.25;5056051;28;20317;-77
2023/12/09 06:16:45;;;;;;;17.90;8.98;;;;;;;6.18;100.00;98623.41;5050938;28;20051;-77
2023/12/09 06:19:10;;;;;;;20.45;10.05;;;;;;;6.02;100.00;98598.34;5068393;28;20009;-77
2023/12/09 06:21:35;;;;;;;19.83;9.35;;;;;;;6.08;100.00;98612.94;5058908;28;20025;-77
2023/12/09 06:24:01;;;;;;;14.32;7.65;;;;;;;6.04;100.00;98592.81;5051088;28;20013;-80
2023/12/09 06:26:26;;;;;;;17.90;8.10;;;;;;;6.21;100.00;98607.81;5033456;28;20056;-72
2023/12/09 06:28:51;;;;;;;13.15;6.28;;;;;;;6.10;100.00;98581.34;5071931;28;20034;-82
2023/12/09 06:31:18;;;;;;;12.63;6.38;;;;;;;6.31;100.00;98599.47;5079859;28;20033;-81
2023/12/09 06:33:43;;;;;;;15.13;6.65;;;;;;;6.33;100.00;98619.78;5043389;28;20106;-79
2023/12/09 06:36:08;;;;;;;16.75;7.18;;;;;;;6.22;100.00;98593.34;5045662;28;20261;-76
2023/12/09 06:38:39;;;;;;;17.30;7.05;;;;;;;6.28;100.00;98599.84;5041230;28;20264;-76
2023/12/09 06:41:04;;;;;;;15.73;7.68;;;;;;;6.24;100.00;98602.06;5057081;28;20028;-76
2023/12/09 06:43:30;;;;;;;18.48;8.43;;;;;;;6.21;100.00;98602.44;5059282;28;20080;-76
2023/12/09 06:45:56;;;;;;;15.57;9.30;;;;;;;6.10;100.00;98601.00;5043023;28;20021;-78
2023/12/09 06:48:21;;;;;;;17.58;9.55;;;;;;;6.11;100.00;98593.78;5044978;28;20348;-77
2023/12/09 06:50:47;;;;;;;14.73;7.75;;;;;;;6.26;100.00;98604.56;5061006;28;20029;-79
2023/12/09 06:53:13;;;;;;;17.42;7.25;;;;;;;6.14;100.00;98574.63;5034216;28;20219;-80
2023/12/09 06:55:39;;;;;;;11.90;7.43;;;;;;;6.11;100.00;98577.66;5063422;28;20021;-76
2023/12/09 06:58:04;;;;;;;15.15;7.18;;;;;;;6.33;100.00;98586.69;5067331;28;20027;-76
2023/12/09 07:00:29;;;;;;;13.48;6.47;;;;;;;6.32;100.00;98604.69;5066241;28;20047;-75
2023/12/09 07:02:55;;;;;;;17.27;6.53;;;;;;;6.17;100.00;98593.03;5064058;28;20021;-79
2023/12/09 07:05:20;;;;;;;15.38;8.60;;;;;;;6.13;100.00;98587.22;5065904;28;20048;-76
2023/12/09 07:07:45;;;;;;;16.33;7.72;;;;;;;6.17;100.00;98589.53;5056947;28;20091;-76
2023/12/09 07:10:11;;;;;;;14.73;7.40;;;;;;;6.20;100.00;98584.63;5056970;28;20025;-75
2023/12/09 07:12:36;;;;;;;14.43;7.00;;;;;;;6.23;100.00;98586.09;5045302;28;20071;-75
2023/12/09 07:15:02;;;;;;;18.00;8.05;;;;;;;6.19;100.00;98601.75;5048965;28;20029;-75
2023/12/09 07:17:27;;;;;;;17.83;6.75;;;;;;;6.21;100.00;98601.56;5068871;28;20035;-76
2023/12/09 07:19:52;;;;;;;11.73;6.32;;;;;;;6.21;100.00;98598.88;5064738;28;20029;-76
2023/12/09 07:22:19;;;;;;;12.80;6.45;;;;;;;6.30;100.00;98606.69;5064348;28;20027;-76
2023/12/09 07:24:44;;;;;;;12.75;5.90;;;;;;;6.34;100.00;98591.03;5065999;28;20147;-76
2023/12/09 07:27:09;;;;;;;11.20;5.90;;;;;;;6.26;100.00;98593.81;5065771;28;20325;-75
2023/12/09 07:29:35;;;;;;;10.73;6.10;;;;;;;6.30;100.00;98585.22;5047455;28;20079;-74
2023/12/09 07:32:00;;;;;;;9.45;5.03;;;;;;;6.39;100.00;98585.13;5047027;28;20100;-78
2023/12/09 07:34:26;;;;;;;9.48;4.70;;;;;;;6.30;100.00;98579.84;5070609;28;20036;-73
2023/12/09 07:36:51;;;;;;;11.07;5.22;;;;;;;6.49;100.00;98605.34;5042705;28;20024;-73
2023/12/09 07:39:17;;;;;;;14.70;5.00;;;;;;;6.39;100.00;98577.91;5046636;28;20032;-73
2023/12/09 07:41:43;;;;;;;12.38;4.68;;;;;;;6.66;100.00;98597.16;5059057;28;20269;-74
2023/12/09 07:44:09;;;;;;;8.35;4.50;;;;;;;6.59;100.00;98581.75;5058732;28;20369;-73
2023/12/09 07:46:34;;;;;;;15.63;6.28;;;;;;;6.70;100.00;98599.28;5058174;28;20024;-73
2023/12/09 07:49:00;;;;;;;15.43;7.45;;;;;;;6.64;100.00;98591.94;5060465;28;20013;-74
2023/12/09 07:51:25;;;;;;;10.93;6.35;;;;;;;6.67;100.00;98596.94;5043717;28;20033;-74
2023/12/09 07:53:50;;;;;;;11.35;5.40;;;;;;;6.84;100.00;98594.09;5043979;28;20095;-74
2023/12/09 07:56:16;;;;;;;9.70;4.82;;;;;;;6.94;100.00;98574.00;5056826;28;20021;-73
2023/12/09 07:58:41;;;;;;;8.30;4.80;;;;;;;7.07;100.00;98584.06;5056029;28;20207;-74
2023/12/09 08:01:06;;;;;;;13.95;4.68;;;;;;;6.85;100.00;98558.13;5061694;28;20021;-73
2023/12/09 08:03:34;;;;;;;11.23;4.60;;;;;;;6.80;100.00;98570.25;5065491;28;20365;-73
2023/12/09 08:06:00;;;;;;;11.15;4.38;;;;;;;6.80;100.00;98570.25;5050660;28;20097;-73
2023/12/09 08:08:26;;;;;;;9.77;4.70;;;;;;;6.76;100.00;98552.84;5042371;28;20115;-74
2023/12/09 08:10:52;;;;;;;12.20;3.55;;;;;;;6.85;100.00;98555.44;5052341;28;20013;-74
2023/12/09 08:13:17;;;;;;;9.52;3.72;;;;;;;6.85;100.00;98556.28;5061043;28;20071;-74
2023/12/09 08:15:43;;;;;;;11.95;4.88;;;;;;;6.97;100.00;98570.09;5032674;28;20021;-74
2023/12/09 08:18:09;;;;;;;13.75;5.40;;;;;;;6.93;100.00;98575.00;5059300;28;20029;-74
2023/12/09 08:20:34;;;;;;;14.32;5.95;;;;;;;6.94;100.00;98570.44;5062643;28;20032;-74
2023/12/09 08:23:00;;;;;;;15.15;4.93;;;;;;;6.94;100.00;98565.94;5062043;28;20039;-74
2023/12/09 08:25:25;;;;;;;13.52;5.72;;;;;;;6.93;100.00;98555.34;5049023;28;20016;-74
2023/12/09 08:27:50;;;;;;;11.95;4.10;;;;;;;7.02;100.00;98547.00;5053311;28;20022;-74
2023/12/09 08:30:16;;;;;;;9.93;4.70;;;;;;;6.92;100.00;98545.63;5056876;28;20028;-74
2023/12/09 08:32:42;;;;;;;10.25;4.30;;;;;;;6.88;100.00;98541.63;5060934;28;20099;-74
2023/12/09 08:35:09;;;;;;;10.35;4.95;;;;;;;6.81;100.00;98541.50;5049564;28;20025;-73
2023/12/09 08:37:34;;;;;;;11.80;5.40;;;;;;;6.83;100.00;98552.94;5036976;28;20021;-74
2023/12/09 08:40:09;;;;;;;13.02;3.97;;;;;;;6.83;100.00;98544.84;5049192;28;20032;-74
2023/12/09 08:42:39;;;;;;;11.82;3.40;;;;;;;6.67;100.00;98521.69;5032862;28;20063;-74
2023/12/09 08:45:05;;;;;;;10.43;4.55;;;;;;;6.85;100.00;98540.13;5064215;28;20112;-76
2023/12/09 08:47:30;;;;;;;14.45;4.25;;;;;;;6.99;100.00;98536.59;5062845;28;20029;-74
2023/12/09 08:49:56;;;;;;;9.30;3.63;;;;;;;7.18;100.00;98534.38;5053007;28;20040;-74
2023/12/09 08:52:21;;;;;;;7.30;3.22;;;;;;;7.36;100.00;98536.63;5061552;28;20036;-74
2023/12/09 08:54:46;;;;;;;6.07;3.15;;;;;;;7.31;100.00;98531.84;5061322;28;20029;-73
2023/12/09 08:57:12;;;;;;;10.95;3.85;;;;;;;7.51;100.00;98541.97;5060850;28;20033;-81
2023/12/09 08:59:37;;;;;;;7.90;3.00;;;;;;;7.52;100.00;98530.19;5039912;28;20088;-81
2023/12/09 09:02:02;;;;;;;6.40;2.42;;;;;;;7.44;100.00;98513.16;5042657;28;20017;-79
2023/12/09 09:04:28;;;;;;;6.30;2.50;;;;;;;7.38;100.00;98516.56;5043327;28;20268;-80
2023/12/09 09:06:53;;;;;;;9.88;2.08;;;;;;;7.27;100.00;98521.63;5044832;28;20027;-77
2023/12/09 09:09:18;;;;;;;6.00;2.30;;;;;;;7.31;100.00;98490.63;5055946;28;20245;-76
2023/12/09 09:11:43;;;;;;;7.65;3.33;;;;;;;7.44;100.00;98497.00;5044646;28;20070;-78
2023/12/09 09:14:09;;;;;;;6.10;2.42;;;;;;;7.48;100.00;98529.72;5042155;28;20067;-79
2023/12/09 09:16:35;;;;;;;4.38;2.20;;;;;;;7.70;100.00;98514.41;5041023;28;20021;-79
2023/12/09 09:19:00;;;;;;;5.20;2.60;;;;;;;7.97;100.00;98495.84;5064557;28;20028;-79
2023/12/09 09:21:26;;;;;;;12.25;5.03;;;;;;;7.81;100.00;98449.28;5042414;28;20514;-79
2023/12/09 09:23:51;;;;;;;10.98;3.67;;;;;;;7.99;100.00;98483.84;5057441;28;20089;-78
2023/12/09 09:26:16;;;;;;;11.60;3.13;;;;;;;8.03;100.00;98482.41;5042001;28;20013;-79
2023/12/09 09:28:43;;;;;;;9.43;2.63;;;;;;;7.78;100.00;98479.31;5046525;28;20033;-79
2023/12/09 09:31:10;;;;;;;6.57;2.30;;;;;;;7.50;100.00;98463.09;5035340;28;20036;-77
2023/12/09 09:33:36;;;;;;;4.68;1.98;;;;;;;7.42;100.00;98457.84;5066245;28;20029;-82
2023/12/09 09:36:01;;;;;;;3.92;1.95;;;;;;;7.47;100.00;98468.88;5039214;28;20317;-80
2023/12/09 09:38:26;;;;;;;5.15;2.20;;;;;;;7.45;100.00;98481.69;5035472;28;20037;-79
2023/12/09 09:40:51;;;;;;;6.00;2.30;;;;;;;7.54;100.00;98477.81;5042260;28;20036;-83
2023/12/09 09:43:23;;;;;;;5.15;2.00;;;;;;;7.42;100.00;98449.75;5038447;28;20025;-79
2023/12/09 09:45:48;;;;;;;8.10;2.30;;;;;;;7.53;100.00;98467.25;5060099;28;20047;-78
2023/12/09 09:48:16;;;;;;;9.25;2.35;;;;;;;7.44;100.00;98464.69;5051693;28;20040;-79
2023/12/09 09:50:45;;;;;;;9.25;2.90;;;;;;;7.34;100.00;98452.59;5062688;28;20028;-83
2023/12/09 09:53:20;;;;;;;4.50;2.20;;;;;;;7.50;100.00;98438.03;5044305;28;20066;-82
2023/12/09 09:55:46;;;;;;;7.03;2.67;;;;;;;7.54;100.00;98436.59;5052660;28;20025;-83
2023/12/09 09:58:12;;;;;;;7.18;2.70;;;;;;;7.72;100.00;98452.31;5041467;28;20017;-80
2023/12/09 10:00:38;;;;;;;15.30;2.85;;;;;;;7.57;100.00;98437.06;5060999;28;20031;-78
2023/12/09 10:03:04;;;;;;;8.13;2.28;;;;;;;7.53;100.00;98424.19;5045786;28;20021;-75
2023/12/09 10:05:29;;;;;;;11.50;2.83;;;;;;;7.63;100.00;98425.53;5046474;28;20326;-78
2023/12/09 10:07:55;;;;;;;7.78;2.60;;;;;;;7.66;100.00;98435.91;5059303;28;20052;-78
2023/12/09 10:10:20;;;;;;;9.13;3.78;;;;;;;7.40;100.00;98424.91;5045275;28;20025;-76
2023/12/09 10:12:45;;;;;;;9.27;2.83;;;;;;;7.36;100.00;98427.16;5025414;28;20100;-76
2023/12/09 10:15:11;;;;;;;8.57;2.95;;;;;;;7.41;100.00;98427.41;5031500;28;20024;-77
2023/12/09 10:17:36;;;;;;;8.48;2.80;;;;;;;7.41;100.00;98408.56;5038146;28;20040;-76
2023/12/09 10:20:05;;;;;;;9.18;2.20;;;;;;;7.67;100.00;98428.66;5052191;28;20252;-73
2023/12/09 10:22:31;;;;;;;9.98;2.80;;;;;;;7.73;100.00;98437.81;5046911;28;20083;-77
2023/12/09 10:24:56;;;;;;;5.88;2.10;;;;;;;7.77;100.00;98421.06;5034127;28;20021;-77
2023/12/09 10:27:24;;;;;;;6.75;3.08;;;;;;;7.93;100.00;98425.34;5037188;28;20258;-77
2023/12/09 10:29:50;;;;;;;8.57;2.80;;;;;;;7.77;100.00;98409.47;5048684;28;20330;-77
2023/12/09 10:32:15;;;;;;;7.20;2.40;;;;;;;7.73;100.00;98394.72;5035051;28;20096;-77
2023/12/09 10:34:41;;;;;;;8.88;2.30;;;;;;;7.62;100.00;98367.34;5049061;28;20025;-77
2023/12/09 10:37:12;;;;;;;9.60;2.17;;;;;;;7.71;100.00;98388.72;5055759;28;20051;-81
2023/12/09 10:39:42;;;;;;;4.95;1.98;;;;;;;7.69;100.00;98388.91;5030322;28;20067;-75
2023/12/09 10:42:08;;;;;;;6.32;2.10;;;;;;;7.73;100.00;98374.03;5057451;28;20337;-75
2023/12/09 10:44:34;;;;;;;4.38;1.95;;;;;;;7.83;100.00;98368.28;5043022;28;20033;-76
2023/12/09 10:46:59;;;;;;;3.88;1.88;;;;;;;7.79;100.00;98353.56;5035906;28;20092;-76
2023/12/09 10:49:24;;;;;;;11.10;2.78;;;;;;;7.82;100.00;98359.38;5040968;28;20033;-76
2023/12/09 10:51:49;;;;;;;6.50;2.30;;;;;;;7.93;100.00;98338.31;5065519;28;20331;-76
2023/12/09 10:54:15;;;;;;;18.02;2.70;;;;;;;8.04;100.00;98330.53;5042529;28;20051;-77
2023/12/09 10:56:40;;;;;;;6.05;2.25;;;;;;;8.27;100.00;98322.13;5041033;28;20044;-77
2023/12/09 10:59:06;;;;;;;4.55;1.80;;;;;;;8.49;100.00;98311.28;5048113;28;20037;-77
2023/12/09 11:01:31;;;;;;;7.88;2.25;;;;;;;8.78;100.00;98315.50;5059893;28;20028;-77
2023/12/09 11:03:58;;;;;;;5.80;1.98;;;;;;;8.76;100.00;98307.59;5060346;28;20792;-78
2023/12/09 11:06:26;;;;;;;4.15;2.13;;;;;;;8.96;100.00;98310.34;5052770;28;20031;-77
2023/12/09 11:08:52;;;;;;;5.23;2.20;;;;;;;9.52;100.00;98303.72;5037776;28;20021;-77
2023/12/09 11:11:18;;;;;;;5.63;1.92;;;;;;;10.98;100.00;98288.88;5051069;28;20044;-77
2023/12/09 11:13:46;;;;;;;5.95;1.95;;;;;;;11.80;100.00;98276.09;5056926;28;20031;-77
2023/12/09 11:16:19;;;;;;;4.68;1.95;;;;;;;11.35;100.00;98279.00;5041121;28;20041;-76